createdAt,value
2023-01-13T00:00:38.395Z,6.50
2023-01-13T00:03:06.833Z,6.17
2023-01-13T00:05:35.451Z,5.97
2023-01-13T00:08:05.038Z,6.40
2023-01-13T00:10:33.483Z,5.37
2023-01-13T00:13:04.845Z,4.83
2023-01-13T00:15:33.458Z,5.17
2023-01-13T00:18:01.787Z,4.20
2023-01-13T00:20:30.451Z,4.77
2023-01-13T00:23:00.224Z,4.90
2023-01-13T00:25:28.609Z,4.30
2023-01-13T00:27:56.942Z,4.80
2023-01-13T00:30:28.173Z,4.37
2023-01-13T00:32:56.600Z,4.63
2023-01-13T00:35:24.865Z,5.80
2023-01-13T00:37:53.474Z,7.30
2023-01-13T00:40:21.853Z,7.57
2023-01-13T00:43:07.494Z,7.43
2023-01-13T00:45:37.297Z,7.33
2023-01-13T00:48:05.681Z,7.90
2023-01-13T00:50:34.433Z,6.73
2023-01-13T00:53:03.488Z,5.60
2023-01-13T00:55:33.061Z,5.37
2023-01-13T00:58:03.746Z,5.47
2023-01-13T01:00:32.490Z,5.23
2023-01-13T01:03:02.369Z,4.93
2023-01-13T01:05:30.730Z,6.00
2023-01-13T01:07:59.012Z,6.90
2023-01-13T01:10:27.422Z,5.80
2023-01-13T01:12:55.795Z,6.57
2023-01-13T01:15:24.222Z,6.07
2023-01-13T01:17:52.518Z,5.70
2023-01-13T01:20:22.325Z,4.80
2023-01-13T01:22:50.633Z,5.30
2023-01-13T01:25:18.958Z,4.50
2023-01-13T01:27:47.295Z,3.90
2023-01-13T01:30:16.542Z,5.53
2023-01-13T01:32:44.848Z,6.10
2023-01-13T01:35:13.268Z,5.33
2023-01-13T01:37:43.028Z,5.83
2023-01-13T01:40:12.755Z,5.63
2023-01-13T01:42:59.705Z,3.77
2023-01-13T01:45:31.365Z,3.40
2023-01-13T01:48:04.334Z,3.57
2023-01-13T01:50:33.556Z,3.60
2023-01-13T01:53:08.569Z,3.70
2023-01-13T01:55:37.937Z,3.70
2023-01-13T01:58:11.565Z,3.77
2023-01-13T02:00:40.570Z,4.90
2023-01-13T02:03:11.104Z,5.40
2023-01-13T02:05:40.181Z,5.07
2023-01-13T02:08:11.265Z,5.10
2023-01-13T02:10:41.096Z,4.77
2023-01-13T02:13:12.688Z,5.13
2023-01-13T02:15:50.674Z,4.80
2023-01-13T02:18:39.856Z,4.77
2023-01-13T02:21:48.556Z,5.73
2023-01-13T02:24:55.754Z,5.37
2023-01-13T02:27:46.002Z,5.50
2023-01-13T02:30:42.080Z,4.97
2023-01-13T02:33:21.656Z,5.57
2023-01-13T02:35:53.619Z,4.27
2023-01-13T02:38:28.980Z,4.73
2023-01-13T02:41:21.935Z,4.27
2023-01-13T02:44:10.647Z,3.87
2023-01-13T02:46:51.046Z,3.37
2023-01-13T02:49:27.339Z,4.37
2023-01-13T02:52:03.716Z,4.37
2023-01-13T02:54:37.193Z,4.27
2023-01-13T02:57:08.626Z,3.87
2023-01-13T02:59:38.187Z,4.23
2023-01-13T03:02:12.068Z,3.73
2023-01-13T03:04:50.210Z,3.70
2023-01-13T03:07:43.818Z,3.50
2023-01-13T03:10:20.995Z,3.13
2023-01-13T03:12:58.457Z,3.77
2023-01-13T03:15:40.516Z,3.97
2023-01-13T03:18:21.427Z,4.57
2023-01-13T03:21:00.156Z,4.33
2023-01-13T03:23:34.591Z,4.77
2023-01-13T03:26:09.901Z,4.17
2023-01-13T03:28:44.220Z,3.40
2023-01-13T03:31:16.849Z,3.80
2023-01-13T03:33:51.850Z,3.23
2023-01-13T03:36:25.900Z,2.50
2023-01-13T03:38:58.859Z,3.80
2023-01-13T03:41:31.965Z,3.60
2023-01-13T03:44:25.778Z,2.40
2023-01-13T03:47:04.082Z,3.70
2023-01-13T03:49:40.217Z,3.40
2023-01-13T03:52:12.768Z,3.53
2023-01-13T03:54:48.893Z,3.40
2023-01-13T03:57:21.744Z,5.83
2023-01-13T03:59:54.688Z,5.20
2023-01-13T04:02:32.270Z,6.43
2023-01-13T04:05:06.032Z,5.37
2023-01-13T04:07:47.469Z,4.77
2023-01-13T04:10:20.302Z,5.63
2023-01-13T04:13:04.368Z,3.23
2023-01-13T04:15:37.694Z,4.60
2023-01-13T04:18:14.512Z,3.37
2023-01-13T04:20:47.154Z,4.37
2023-01-13T04:23:16.321Z,3.70
2023-01-13T04:25:45.905Z,3.10
2023-01-13T04:28:15.144Z,4.03
2023-01-13T04:30:44.189Z,3.60
2023-01-13T04:33:13.720Z,3.17
2023-01-13T04:35:42.445Z,3.40
2023-01-13T04:38:15.285Z,3.60
2023-01-13T04:40:44.157Z,2.83
2023-01-13T04:43:12.789Z,3.33
2023-01-13T04:45:42.461Z,3.17
2023-01-13T04:48:10.845Z,2.90
2023-01-13T04:50:40.536Z,3.77
2023-01-13T04:53:09.266Z,3.27
2023-01-13T04:55:39.094Z,3.80
2023-01-13T04:58:09.044Z,3.23
2023-01-13T05:00:37.823Z,3.43
2023-01-13T05:03:06.889Z,2.90
2023-01-13T05:05:35.356Z,3.70
2023-01-13T05:08:03.709Z,3.17
2023-01-13T05:10:32.143Z,3.13
2023-01-13T05:13:20.489Z,3.60
2023-01-13T05:16:17.985Z,3.33
2023-01-13T05:18:46.537Z,3.00
2023-01-13T05:21:28.679Z,3.03
2023-01-13T05:24:14.861Z,2.90
2023-01-13T05:26:43.282Z,3.03
2023-01-13T05:29:13.075Z,2.90
2023-01-13T05:31:41.515Z,3.30
2023-01-13T05:34:09.832Z,3.83
2023-01-13T05:36:38.271Z,3.03
2023-01-13T05:39:06.624Z,3.67
2023-01-13T05:41:52.353Z,2.67
2023-01-13T05:44:22.112Z,2.43
2023-01-13T05:46:51.099Z,2.43
2023-01-13T05:49:19.564Z,1.67
2023-01-13T05:51:47.932Z,3.60
2023-01-13T05:54:16.499Z,3.13
2023-01-13T05:56:44.932Z,2.87
2023-01-13T05:59:14.390Z,2.23
2023-01-13T06:01:44.177Z,3.57
2023-01-13T06:04:12.615Z,5.97
2023-01-13T06:06:41.001Z,5.43
2023-01-13T06:09:09.394Z,5.33
2023-01-13T06:11:37.710Z,5.20
2023-01-13T06:14:06.041Z,4.97
2023-01-13T06:16:34.467Z,4.83
2023-01-13T06:19:04.189Z,5.83
2023-01-13T06:21:33.372Z,5.47
2023-01-13T06:24:01.914Z,6.10
2023-01-13T06:26:33.203Z,4.83
2023-01-13T06:29:01.497Z,5.53
2023-01-13T06:31:30.041Z,6.67
2023-01-13T06:34:01.395Z,7.87
2023-01-13T06:36:36.895Z,8.33
2023-01-13T06:39:07.103Z,7.17
2023-01-13T06:41:53.125Z,7.20
2023-01-13T06:44:23.064Z,6.00
2023-01-13T06:46:52.720Z,4.60
2023-01-13T06:49:21.761Z,5.20
2023-01-13T06:51:53.037Z,5.80
2023-01-13T06:54:21.525Z,6.17
2023-01-13T06:56:49.916Z,7.37
2023-01-13T06:59:18.336Z,7.00
2023-01-13T07:01:47.056Z,6.90
2023-01-13T07:04:15.617Z,7.80
2023-01-13T07:06:44.132Z,10.13
2023-01-13T07:09:14.157Z,8.87
2023-01-13T07:11:42.576Z,8.37
2023-01-13T07:14:28.785Z,8.77
2023-01-13T07:16:57.138Z,9.50
2023-01-13T07:19:25.455Z,8.10
2023-01-13T07:21:54.044Z,6.27
2023-01-13T07:24:23.896Z,5.50
2023-01-13T07:26:53.021Z,4.00
2023-01-13T07:29:30.699Z,4.10
2023-01-13T07:32:08.187Z,2.73
2023-01-13T07:34:40.601Z,3.23
2023-01-13T07:37:08.902Z,2.60
2023-01-13T07:39:40.775Z,2.80
2023-01-13T07:42:36.138Z,2.90
2023-01-13T07:45:04.736Z,6.07
2023-01-13T07:47:33.147Z,6.00
2023-01-13T07:50:01.606Z,5.27
2023-01-13T07:52:29.972Z,5.30
2023-01-13T07:54:59.746Z,5.93
2023-01-13T07:57:28.100Z,6.87
2023-01-13T07:59:56.870Z,4.47
2023-01-13T08:02:25.367Z,4.53
2023-01-13T08:04:53.819Z,4.00
2023-01-13T08:07:22.119Z,3.83
2023-01-13T08:09:50.620Z,4.57
2023-01-13T08:12:41.160Z,3.10
2023-01-13T08:15:21.640Z,2.13
2023-01-13T08:17:50.956Z,2.60
2023-01-13T08:20:19.833Z,1.90
2023-01-13T08:22:48.211Z,1.90
2023-01-13T08:25:17.582Z,1.63
2023-01-13T08:27:49.612Z,0.87
2023-01-13T08:30:19.355Z,1.87
2023-01-13T08:32:48.431Z,1.70
2023-01-13T08:35:18.111Z,1.50
2023-01-13T08:37:47.601Z,1.30
2023-01-13T08:40:17.478Z,0.57
2023-01-13T08:42:48.717Z,0.30
2023-01-13T08:45:17.319Z,0.50
2023-01-13T08:47:45.997Z,0.20
2023-01-13T08:50:14.505Z,0.10
2023-01-13T08:52:43.230Z,0.20
2023-01-13T08:55:12.239Z,0.27
2023-01-13T08:57:40.545Z,0.10
2023-01-13T09:00:12.215Z,0.20
2023-01-13T09:02:40.770Z,0.10
2023-01-13T09:05:10.553Z,0.00
2023-01-13T09:07:40.493Z,0.03
2023-01-13T09:10:10.675Z,0.10
2023-01-13T09:12:56.605Z,0.10
2023-01-13T09:15:26.672Z,0.00
2023-01-13T09:17:55.026Z,0.10
2023-01-13T09:20:23.451Z,0.10
2023-01-13T09:22:51.784Z,0.30
2023-01-13T09:25:20.096Z,1.00
2023-01-13T09:27:48.426Z,0.30
2023-01-13T09:30:17.094Z,0.20
2023-01-13T09:33:09.881Z,0.50
2023-01-13T09:35:37.245Z,0.60
2023-01-13T09:38:06.238Z,0.50
2023-01-13T09:40:34.920Z,0.50
2023-01-13T09:43:33.639Z,0.40
2023-01-13T09:46:07.100Z,0.50
2023-01-13T09:48:52.351Z,0.40
2023-01-13T09:51:29.256Z,0.20
2023-01-13T09:54:03.466Z,0.30
2023-01-13T09:56:31.865Z,0.10
2023-01-13T09:59:00.319Z,0.10
2023-01-13T10:01:33.785Z,0.10
2023-01-13T10:04:11.351Z,0.20
2023-01-13T10:06:42.680Z,0.20
2023-01-13T10:09:16.116Z,0.40
2023-01-13T10:12:05.001Z,0.57
2023-01-13T10:14:42.733Z,1.00
2023-01-13T10:17:20.342Z,1.00
2023-01-13T10:19:57.000Z,1.00
2023-01-13T10:22:43.370Z,1.10
2023-01-13T10:25:28.188Z,0.67
2023-01-13T10:28:04.363Z,0.60
2023-01-13T10:30:36.037Z,0.30
2023-01-13T10:33:12.065Z,0.17
2023-01-13T10:35:54.144Z,0.20
2023-01-13T10:38:26.373Z,0.10
2023-01-13T10:40:56.750Z,0.40
2023-01-13T10:43:26.559Z,0.20
2023-01-13T10:46:03.836Z,0.20
2023-01-13T10:48:39.308Z,0.10
2023-01-13T10:51:23.235Z,0.10
2023-01-13T10:53:55.891Z,0.17
2023-01-13T10:56:26.779Z,0.20
2023-01-13T10:59:14.357Z,0.40
2023-01-13T11:01:45.416Z,0.50
2023-01-13T11:04:30.064Z,0.37
2023-01-13T11:07:01.004Z,0.33
2023-01-13T11:09:31.422Z,0.30
2023-01-13T11:12:00.619Z,0.17
2023-01-13T11:14:39.890Z,0.10
2023-01-13T11:17:28.837Z,0.60
2023-01-13T11:20:05.252Z,0.23
2023-01-13T11:22:38.492Z,0.00
2023-01-13T11:25:13.915Z,0.07
2023-01-13T11:27:46.973Z,0.10
2023-01-13T11:30:27.473Z,0.00
2023-01-13T11:33:27.504Z,0.00
2023-01-13T11:36:05.865Z,0.10
2023-01-13T11:38:44.310Z,0.10
2023-01-13T11:41:19.933Z,0.10
2023-01-13T11:43:55.165Z,0.17
2023-01-13T11:46:27.668Z,0.10
2023-01-13T11:48:57.892Z,0.20
2023-01-13T11:51:34.594Z,0.10
2023-01-13T11:54:22.805Z,0.20
2023-01-13T11:57:13.326Z,0.10
2023-01-13T11:59:59.974Z,0.10
2023-01-13T12:02:46.394Z,0.00
2023-01-13T12:05:25.080Z,0.10
2023-01-13T12:08:03.815Z,0.00
2023-01-13T12:10:52.869Z,0.10
2023-01-13T12:13:34.533Z,0.10
2023-01-13T12:16:24.896Z,0.07
2023-01-13T12:19:07.919Z,0.00
2023-01-13T12:21:41.246Z,0.10
2023-01-13T12:24:18.408Z,0.10
2023-01-13T12:26:53.694Z,0.10
2023-01-13T12:29:30.915Z,0.03
2023-01-13T12:32:03.277Z,0.30
2023-01-13T12:34:43.786Z,0.70
2023-01-13T12:37:19.477Z,0.10
2023-01-13T12:39:58.845Z,0.30
2023-01-13T12:42:51.715Z,0.10
2023-01-13T12:45:29.863Z,0.10
2023-01-13T12:47:59.373Z,0.10
2023-01-13T12:50:42.815Z,0.10
2023-01-13T12:53:36.567Z,0.27
2023-01-13T12:56:40.909Z,0.20
2023-01-13T12:59:51.539Z,0.20
2023-01-13T13:02:35.943Z,0.20
2023-01-13T13:05:37.957Z,0.20
2023-01-13T13:08:12.681Z,0.10
2023-01-13T13:10:48.214Z,0.10
2023-01-13T13:13:40.638Z,0.10
2023-01-13T13:16:38.706Z,0.10
2023-01-13T13:19:44.300Z,0.00
2023-01-13T13:22:45.946Z,0.07
2023-01-13T13:25:28.372Z,0.10
2023-01-13T13:28:17.437Z,0.10
2023-01-13T13:30:57.276Z,0.07
2023-01-13T13:33:51.931Z,0.10
2023-01-13T13:36:41.908Z,0.10
2023-01-13T13:39:39.992Z,0.20
2023-01-13T13:42:32.583Z,0.10
2023-01-13T13:45:21.742Z,0.10
2023-01-13T13:47:50.186Z,0.07
2023-01-13T13:50:21.004Z,0.27
2023-01-13T13:52:55.277Z,0.20
2023-01-13T13:55:27.241Z,0.20
2023-01-13T13:57:58.147Z,0.20
2023-01-13T14:00:29.715Z,0.10
2023-01-13T14:03:00.875Z,0.13
2023-01-13T14:05:31.138Z,0.20
2023-01-13T14:08:01.323Z,0.10
2023-01-13T14:10:36.953Z,0.17
2023-01-13T14:13:15.683Z,0.20
2023-01-13T14:15:45.127Z,0.20
2023-01-13T14:18:16.576Z,0.20
2023-01-13T14:20:45.442Z,0.20
2023-01-13T14:23:19.093Z,0.20
2023-01-13T14:25:50.493Z,0.30
2023-01-13T14:28:23.863Z,0.10
2023-01-13T14:30:53.920Z,0.10
2023-01-13T14:33:28.293Z,0.10
2023-01-13T14:36:15.473Z,0.17
2023-01-13T14:38:45.759Z,0.10
2023-01-13T14:41:22.846Z,0.20
2023-01-13T14:43:54.580Z,0.10
2023-01-13T14:46:25.502Z,0.03
2023-01-13T14:49:01.034Z,0.20
2023-01-13T14:51:31.558Z,0.10
2023-01-13T14:54:00.047Z,0.20
2023-01-13T14:56:47.323Z,0.37
2023-01-13T14:59:34.910Z,1.13
2023-01-13T15:02:04.318Z,0.60
2023-01-13T15:04:38.245Z,0.30
2023-01-13T15:07:18.390Z,0.47
2023-01-13T15:09:46.784Z,0.40
2023-01-13T15:12:24.211Z,0.10
2023-01-13T15:14:54.904Z,0.10
2023-01-13T15:17:23.243Z,0.10
2023-01-13T15:19:51.635Z,0.20
2023-01-13T15:22:19.963Z,0.20
2023-01-13T15:24:48.377Z,0.10
2023-01-13T15:27:21.529Z,0.40
2023-01-13T15:29:50.228Z,0.20
2023-01-13T15:32:21.001Z,0.10
2023-01-13T15:34:50.849Z,0.00
2023-01-13T15:37:20.059Z,0.10
2023-01-13T15:39:48.455Z,0.10
2023-01-13T15:42:31.984Z,0.20
2023-01-13T15:45:17.662Z,0.30
2023-01-13T15:47:46.521Z,0.33
2023-01-13T15:50:15.928Z,0.50
2023-01-13T15:52:44.562Z,0.43
2023-01-13T15:55:13.073Z,0.37
2023-01-13T15:57:49.214Z,0.50
2023-01-13T16:00:21.756Z,0.43
2023-01-13T16:02:51.823Z,0.60
2023-01-13T16:05:20.437Z,0.43
2023-01-13T16:07:48.943Z,0.87
2023-01-13T16:10:20.758Z,1.10
2023-01-13T16:12:50.882Z,1.00
2023-01-13T16:15:22.420Z,0.40
2023-01-13T16:17:55.557Z,1.00
2023-01-13T16:20:24.434Z,0.70
2023-01-13T16:22:52.830Z,0.50
2023-01-13T16:25:23.304Z,0.40
2023-01-13T16:27:53.774Z,0.40
2023-01-13T16:30:27.743Z,0.40
2023-01-13T16:32:56.997Z,0.70
2023-01-13T16:35:26.532Z,0.40
2023-01-13T16:37:58.410Z,0.20
2023-01-13T16:40:31.237Z,0.20
2023-01-13T16:43:03.587Z,0.30
2023-01-13T16:45:32.981Z,0.30
2023-01-13T16:48:01.594Z,0.50
2023-01-13T16:50:36.133Z,0.10
2023-01-13T16:53:05.140Z,0.13
2023-01-13T16:55:33.538Z,0.23
2023-01-13T16:58:03.590Z,0.30
2023-01-13T17:00:32.287Z,0.30
2023-01-13T17:03:02.819Z,0.30
2023-01-13T17:05:31.247Z,0.57
2023-01-13T17:07:59.709Z,4.77
2023-01-13T17:10:28.069Z,2.70
2023-01-13T17:12:58.284Z,1.00
2023-01-13T17:15:29.790Z,1.50
2023-01-13T17:17:58.570Z,2.70
2023-01-13T17:20:27.329Z,2.73
2023-01-13T17:22:58.779Z,3.10
2023-01-13T17:25:27.540Z,3.47
2023-01-13T17:27:55.897Z,3.97
2023-01-13T17:30:24.946Z,4.23
2023-01-13T17:32:54.702Z,2.00
2023-01-13T17:35:25.323Z,1.43
2023-01-13T17:37:54.169Z,1.43
2023-01-13T17:40:22.798Z,2.00
2023-01-13T17:42:51.307Z,1.40
2023-01-13T17:45:19.623Z,1.83
2023-01-13T17:47:47.982Z,4.03
2023-01-13T17:50:19.273Z,2.30
2023-01-13T17:52:47.635Z,1.30
2023-01-13T17:55:16.171Z,1.47
2023-01-13T17:57:44.750Z,0.90
2023-01-13T18:00:14.370Z,3.03
2023-01-13T18:02:42.802Z,0.67
2023-01-13T18:05:12.711Z,1.83
2023-01-13T18:07:42.491Z,2.47
2023-01-13T18:10:12.362Z,4.37
2023-01-13T18:12:40.852Z,2.43
2023-01-13T18:15:10.250Z,2.30
2023-01-13T18:17:38.697Z,4.17
2023-01-13T18:20:25.315Z,5.67
2023-01-13T18:23:12.615Z,7.33
2023-01-13T18:25:58.566Z,5.67
2023-01-13T18:28:27.745Z,5.97
2023-01-13T18:30:56.202Z,4.33
2023-01-13T18:33:25.696Z,2.33
2023-01-13T18:35:54.592Z,3.20
2023-01-13T18:38:24.437Z,5.90
2023-01-13T18:40:53.487Z,4.63
2023-01-13T18:43:20.832Z,2.10
2023-01-13T18:45:52.259Z,5.97
2023-01-13T18:48:20.707Z,2.90
2023-01-13T18:50:49.014Z,3.63
2023-01-13T18:53:17.456Z,4.80
2023-01-13T18:55:47.264Z,4.10
2023-01-13T18:58:15.791Z,3.10
2023-01-13T19:00:44.191Z,2.37
2023-01-13T19:03:13.131Z,1.83
2023-01-13T19:05:41.479Z,1.37
2023-01-13T19:08:10.117Z,1.10
2023-01-13T19:10:40.811Z,1.00
2023-01-13T19:13:10.682Z,1.30
2023-01-13T19:15:39.074Z,1.00
2023-01-13T19:18:07.516Z,0.60
2023-01-13T19:20:36.114Z,1.00
2023-01-13T19:23:04.533Z,0.70
2023-01-13T19:25:32.895Z,0.90
2023-01-13T19:28:01.260Z,1.20
2023-01-13T19:30:31.085Z,0.40
2023-01-13T19:33:00.485Z,0.33
2023-01-13T19:35:28.868Z,0.40
2023-01-13T19:37:57.472Z,0.40
2023-01-13T19:40:26.632Z,0.30
2023-01-13T19:43:12.727Z,0.63
2023-01-13T19:45:42.676Z,0.90
2023-01-13T19:48:11.015Z,2.30
2023-01-13T19:50:40.224Z,5.10
2023-01-13T19:53:14.051Z,3.60
2023-01-13T19:55:45.663Z,2.10
2023-01-13T19:58:13.998Z,1.50
2023-01-13T20:00:47.460Z,2.67
2023-01-13T20:03:15.843Z,1.30
2023-01-13T20:05:44.373Z,0.57
2023-01-13T20:08:12.881Z,0.40
2023-01-13T20:10:42.849Z,0.80
2023-01-13T20:13:11.291Z,0.40
2023-01-13T20:15:39.818Z,0.50
2023-01-13T20:18:09.782Z,0.40
2023-01-13T20:20:39.009Z,0.40
2023-01-13T20:23:07.390Z,0.50
2023-01-13T20:25:35.809Z,0.40
2023-01-13T20:28:04.477Z,0.57
2023-01-13T20:30:32.861Z,0.60
2023-01-13T20:33:01.199Z,0.90
2023-01-13T20:35:30.910Z,0.40
2023-01-13T20:37:59.361Z,0.77
2023-01-13T20:40:27.787Z,0.50
2023-01-13T20:42:55.195Z,0.60
2023-01-13T20:45:23.747Z,0.40
2023-01-13T20:47:52.454Z,0.53
2023-01-13T20:50:21.001Z,0.60
2023-01-13T20:52:52.693Z,0.50
2023-01-13T20:55:22.243Z,0.70
2023-01-13T20:57:50.761Z,14.43
2023-01-13T21:00:20.323Z,4.53
2023-01-13T21:02:48.756Z,1.67
2023-01-13T21:05:17.300Z,1.37
2023-01-13T21:07:45.892Z,2.10
2023-01-13T21:10:15.940Z,1.50
2023-01-13T21:13:01.755Z,1.60
2023-01-13T21:15:30.220Z,1.67
2023-01-13T21:18:16.235Z,2.30
2023-01-13T21:20:44.591Z,3.40
2023-01-13T21:23:12.945Z,7.23
2023-01-13T21:25:43.393Z,5.50
2023-01-13T21:28:12.428Z,4.40
2023-01-13T21:30:40.990Z,3.43
2023-01-13T21:33:10.161Z,4.10
2023-01-13T21:35:42.944Z,3.50
2023-01-13T21:38:16.172Z,2.50
2023-01-13T21:41:00.729Z,4.17
2023-01-13T21:43:47.287Z,3.30
2023-01-13T21:46:33.592Z,3.80
2023-01-13T21:49:02.525Z,3.60
2023-01-13T21:51:31.406Z,3.47
2023-01-13T21:53:59.971Z,3.90
2023-01-13T21:56:29.720Z,2.97
2023-01-13T21:58:58.112Z,4.70
2023-01-13T22:01:26.522Z,3.57
2023-01-13T22:04:18.677Z,2.60
2023-01-13T22:06:47.051Z,2.23
2023-01-13T22:09:15.416Z,1.20
2023-01-13T22:11:45.221Z,0.90
2023-01-13T22:14:14.144Z,0.73
2023-01-13T22:16:49.552Z,0.70
2023-01-13T22:19:18.863Z,0.70
2023-01-13T22:21:47.129Z,0.60
2023-01-13T22:24:15.697Z,0.60
2023-01-13T22:26:45.509Z,0.60
2023-01-13T22:29:14.931Z,0.50
2023-01-13T22:31:43.322Z,1.20
2023-01-13T22:34:13.611Z,0.77
2023-01-13T22:36:42.039Z,0.80
2023-01-13T22:39:10.488Z,0.67
2023-01-13T22:41:38.916Z,0.70
2023-01-13T22:44:08.728Z,0.70
2023-01-13T22:46:37.084Z,0.90
2023-01-13T22:49:05.777Z,1.30
2023-01-13T22:51:34.154Z,1.50
2023-01-13T22:54:02.522Z,1.93
2023-01-13T22:56:30.914Z,1.60
2023-01-13T22:59:02.787Z,1.77
2023-01-13T23:01:40.497Z,1.00
2023-01-13T23:04:08.969Z,1.40
2023-01-13T23:06:37.429Z,1.00
2023-01-13T23:09:06.459Z,0.70
2023-01-13T23:11:35.403Z,0.50
2023-01-13T23:14:06.473Z,0.80
2023-01-13T23:16:38.376Z,0.60
2023-01-13T23:19:07.726Z,0.70
2023-01-13T23:21:38.216Z,0.80
2023-01-13T23:24:07.958Z,1.10
2023-01-13T23:26:37.045Z,0.70
2023-01-13T23:29:07.816Z,1.00
2023-01-13T23:31:37.924Z,1.03
2023-01-13T23:34:06.507Z,1.00
2023-01-13T23:36:37.170Z,1.10
2023-01-13T23:39:05.558Z,0.70
2023-01-13T23:41:33.944Z,0.70
2023-01-13T23:44:02.393Z,1.00
2023-01-13T23:46:33.129Z,0.60
2023-01-13T23:49:05.423Z,0.90
2023-01-13T23:51:33.827Z,0.67
2023-01-13T23:54:02.313Z,0.90
2023-01-13T23:56:33.064Z,1.13
2023-01-13T23:59:02.494Z,0.80
